Veuillez saisir l'adresse e-mail associée à votre compte d'utilisateur. Votre identifiant vous sera envoyé à cette adresse.

METAR TAF

[Source: ADDS]
METAR
LFCR 230400Z AUTO 25009KT 9999 OVC006 03/02 Q1005 TEMPO 4000 RA BKN004 SCT015TCU =
LFCR 222300Z 2300/2324 27012KT 9999 OVC007 PROB40 TEMPO 2300/2305 4000 SHRA BKN004 SCT015TCU PROB30 TEMPO 2300/2305 2000 SHRASN BKN002 TEMPO 2305/2311 4000 RA OVC011 PROB40 TEMPO 2311/2318 29015G25KT 4000 SHRA BKN012 SCT015TCU BECMG 2318/2321 VRB03KT 3000 -SN OVC003 LFBA 230400Z AUTO 22008KT 190V260 9999 FEW039 BKN054 OVC072 07/05 Q1006 =
LFBA 221700Z 2218/2303 26015G25KT 9999 BKN050 TEMPO 2218/2303 26015G25KT 3000 SHRA BKN010 FEW020CB BKN025TCU LFSL 230400Z AUTO 18007KT 9999 OVC003/// ///TCU 04/04 Q1004 TEMPO 3000 RA OVC004 =
AMD LFSL 230424Z 2304/2312 23006KT 9999 OVC005 TEMPO 2304/2306 3000 RA OVC002 BECMG 2306/2308 22015G25KT BECMG 2310/2312 BKN012 TEMPO 2306/2312 4000 RA
TAF
LFCR 222300Z 2300/2324 27012KT 9999 OVC007 PROB40 TEMPO 2300/2305 4000 SHRA BKN004 SCT015TCU PROB30 TEMPO 2300/2305 2000 SHRASN BKN002 TEMPO 2305/2311 4000 RA OVC011 PROB40 TEMPO 2311/2318 29015G25KT 4000 SHRA BKN012 SCT015TCU BECMG 2318/2321 VRB03KT 3000 -SN OVC003 =
LFBA 221700Z 2218/2303 26015G25KT 9999 BKN050 TEMPO 2218/2303 26015G25KT 3000 SHRA BKN010 FEW020CB BKN025TCU =
AMD LFSL 230424Z 2304/2312 23006KT 9999 OVC005 TEMPO 2304/2306 3000 RA OVC002 BECMG 2306/2308 22015G25KT BECMG 2310/2312 BKN012 TEMPO 2306/2312 4000 RA =
SR / SS: 07:20 / 16:51 UTC (LFCC 2021-01-23)